Time;durP1;ratioP1;P1;durP2;ratioP2;P2;SDS_P1;SDS_P2;PMS_P1;PMS_P2;Temp;Humidity;BMP_temperature;BMP_pressure;BME280_temperature;BME280_humidity;BME280_pressure;Samples;Min_cycle;Max_cycle;Signal;HPM_P1;HPM_P2
2023/01/29 00:00:44;;;;;;;0.00;0.00;;;;;;;3.73;100.00;101909.44;4937169;28;20086;-74
2023/01/29 00:03:10;;;;;;;0.00;0.00;;;;;;;3.67;100.00;101890.19;4933435;28;20074;-75
2023/01/29 00:05:44;;;;;;;0.00;0.00;;;;;;;3.79;100.00;101897.84;4949013;28;20027;-74
2023/01/29 00:08:29;;;;;;;0.10;0.10;;;;;;;3.74;100.00;101894.84;4950360;28;20071;-74
2023/01/29 00:11:01;;;;;;;0.00;0.00;;;;;;;3.79;100.00;101908.69;4934656;28;20043;-75
2023/01/29 00:13:27;;;;;;;0.10;0.10;;;;;;;3.76;100.00;101892.81;4948321;28;20023;-75
2023/01/29 00:15:54;;;;;;;0.00;0.00;;;;;;;3.78;100.00;101891.63;4953385;28;20070;-75
2023/01/29 00:18:32;;;;;;;0.00;0.00;;;;;;;3.64;100.00;101874.31;4947367;28;20083;-75
2023/01/29 00:21:00;;;;;;;0.00;0.00;;;;;;;3.76;100.00;101898.22;4951656;28;20050;-75
2023/01/29 00:23:33;;;;;;;0.00;0.00;;;;;;;3.75;100.00;101891.13;4947834;28;20043;-74
2023/01/29 00:26:19;;;;;;;0.00;0.00;;;;;;;3.72;100.00;101886.09;4945595;28;20043;-74
2023/01/29 00:28:45;;;;;;;0.00;0.00;;;;;;;3.86;100.00;101909.63;4936970;28;20047;-72
2023/01/29 00:31:25;;;;;;;0.00;0.00;;;;;;;3.79;100.00;101892.44;4953276;28;20379;-73
2023/01/29 00:33:51;;;;;;;0.00;0.00;;;;;;;3.71;100.00;101884.41;4970703;28;20125;-73
2023/01/29 00:36:18;;;;;;;0.00;0.00;;;;;;;3.70;100.00;101874.63;4949986;28;20699;-74
2023/01/29 00:39:02;;;;;;;0.00;0.00;;;;;;;3.71;100.00;101884.41;4950532;28;20087;-75
2023/01/29 00:49:52;;;;;;;0.00;0.00;;;;;;;3.65;100.00;101885.97;4956509;28;20159;-74
2023/01/29 00:52:23;;;;;;;0.00;0.00;;;;;;;3.73;100.00;101898.59;4932478;29;20031;-76
2023/01/29 00:54:49;;;;;;;0.00;0.00;;;;;;;3.69;100.00;101894.59;4951133;28;20047;-74
2023/01/29 00:57:14;;;;;;;0.00;0.00;;;;;;;3.76;100.00;101900.94;4945323;28;20052;-74
2023/01/29 00:59:42;;;;;;;0.00;0.00;;;;;;;3.66;100.00;101883.13;4943670;28;20122;-74
2023/01/29 01:04:56;;;;;;;0.00;0.00;;;;;;;3.69;100.00;101886.47;4955312;28;20094;-74
2023/01/29 01:07:39;;;;;;;0.00;0.00;;;;;;;3.69;100.00;101889.16;4955033;28;20030;-75
2023/01/29 01:10:21;;;;;;;0.00;0.00;;;;;;;3.77;100.00;101894.50;4963000;28;20457;-74
2023/01/29 01:12:55;;;;;;;0.00;0.00;;;;;;;3.71;100.00;101889.81;4952091;28;20038;-74
2023/01/29 01:15:32;;;;;;;0.00;0.00;;;;;;;3.72;100.00;101886.09;4949145;28;20540;-74
2023/01/29 01:18:00;;;;;;;0.00;0.00;;;;;;;3.59;100.00;101871.34;4943304;28;20038;-73
2023/01/29 01:20:27;;;;;;;0.00;0.00;;;;;;;3.58;100.00;101880.47;4948924;28;20114;-75
2023/01/29 01:22:53;;;;;;;0.10;0.10;;;;;;;3.64;100.00;101895.13;4945061;28;20497;-76
2023/01/29 01:25:23;;;;;;;0.00;0.00;;;;;;;3.53;100.00;101871.22;4948238;28;20031;-76
2023/01/29 01:27:57;;;;;;;0.00;0.00;;;;;;;3.63;100.00;101883.47;4950053;28;20035;-77
2023/01/29 01:30:23;;;;;;;0.00;0.00;;;;;;;3.62;100.00;101887.22;4948841;28;20039;-77
2023/01/29 01:32:49;;;;;;;0.00;0.00;;;;;;;3.59;100.00;101882.16;4933796;28;20119;-77
2023/01/29 01:35:15;;;;;;;0.00;0.00;;;;;;;3.49;100.00;101859.94;4948511;28;20122;-77
2023/01/29 01:37:41;;;;;;;0.00;0.00;;;;;;;3.58;100.00;101872.38;4943385;28;20043;-74
2023/01/29 01:40:16;;;;;;;0.00;0.00;;;;;;;3.63;100.00;101880.75;4932358;28;20036;-73
2023/01/29 01:42:43;;;;;;;0.00;0.00;;;;;;;3.58;100.00;101880.47;4943654;28;20023;-74
2023/01/29 01:45:21;;;;;;;0.00;0.00;;;;;;;3.60;100.00;101886.53;4947289;28;20446;-75
2023/01/29 01:47:50;;;;;;;0.00;0.00;;;;;;;3.61;100.00;101885.53;4952673;28;20415;-75
2023/01/29 01:50:36;;;;;;;0.00;0.00;;;;;;;3.63;100.00;101883.47;4942381;28;20039;-75
2023/01/29 01:53:11;;;;;;;0.00;0.00;;;;;;;3.63;100.00;101880.75;4950724;28;20042;-76
2023/01/29 01:55:46;;;;;;;0.00;0.00;;;;;;;3.62;100.00;101880.94;4929320;28;20051;-76
2023/01/29 01:58:20;;;;;;;0.00;0.00;;;;;;;3.60;100.00;101878.41;4947328;28;20038;-77
2023/01/29 02:00:45;;;;;;;0.00;0.00;;;;;;;3.57;100.00;101861.72;4946484;28;20046;-77
2023/01/29 02:11:38;;;;;;;0.00;0.00;;;;;;;3.53;100.00;101872.06;4941725;28;20494;-76
2023/01/29 02:14:04;;;;;;;0.00;0.00;;;;;;;3.58;100.00;101883.19;4951130;28;20059;-77
2023/01/29 02:16:32;;;;;;;0.00;0.00;;;;;;;3.53;100.00;101866.66;4950563;28;20050;-76
2023/01/29 02:19:01;;;;;;;0.00;0.00;;;;;;;3.54;100.00;101868.34;4929804;29;20110;-76
2023/01/29 02:21:47;;;;;;;0.00;0.00;;;;;;;3.64;100.00;101884.31;4930272;28;20038;-78
2023/01/29 02:24:27;;;;;;;0.00;0.00;;;;;;;3.64;100.00;101868.91;4952436;28;20145;-76
2023/01/29 02:26:57;;;;;;;0.00;0.00;;;;;;;3.50;100.00;101867.03;4952099;28;20736;-76
2023/01/29 02:29:49;;;;;;;0.00;0.00;;;;;;;3.26;100.00;101843.78;4951700;28;20513;-75
2023/01/29 02:32:22;;;;;;;0.00;0.00;;;;;;;3.18;100.00;101849.22;4949795;28;20156;-75
2023/01/29 02:38:09;;;;;;;0.00;0.00;;;;;;;3.32;100.00;101857.38;4945047;28;20126;-77
2023/01/29 02:40:42;;;;;;;0.00;0.00;;;;;;;3.40;100.00;101855.63;4941190;28;20134;-77
2023/01/29 02:43:47;;;;;;;0.00;0.00;;;;;;;3.52;100.00;101859.59;4950852;28;20035;-77
2023/01/29 02:46:29;;;;;;;0.00;0.00;;;;;;;3.51;100.00;101841.66;4947604;28;20023;-76
2023/01/29 02:49:04;;;;;;;0.10;0.10;;;;;;;3.62;100.00;101851.19;4945482;28;20415;-77
2023/01/29 02:51:39;;;;;;;0.00;0.00;;;;;;;3.65;100.00;101854.38;4951325;28;20031;-77
2023/01/29 02:54:20;;;;;;;0.00;0.00;;;;;;;3.63;100.00;101844.75;4937282;28;20052;-76
2023/01/29 02:56:58;;;;;;;0.00;0.00;;;;;;;3.78;100.00;101842.91;4955155;28;20039;-76
2023/01/29 02:59:42;;;;;;;0.00;0.00;;;;;;;3.87;100.00;101857.19;4946986;28;20026;-75
2023/01/29 03:02:15;;;;;;;0.00;0.00;;;;;;;3.89;100.00;101844.31;4943529;28;20031;-75
2023/01/29 03:04:46;;;;;;;0.00;0.00;;;;;;;3.97;100.00;101846.06;4949409;28;20433;-75
2023/01/29 03:10:24;;;;;;;0.00;0.00;;;;;;;4.01;100.00;101834.66;4932435;28;20050;-75
2023/01/29 03:12:59;;;;;;;0.00;0.00;;;;;;;3.99;100.00;101828.63;4940131;28;20070;-75
2023/01/29 03:15:31;;;;;;;0.00;0.00;;;;;;;3.99;100.00;101812.38;4942585;28;20032;-75
2023/01/29 03:18:11;;;;;;;0.00;0.00;;;;;;;4.02;100.00;101800.34;4942690;28;20039;-76
2023/01/29 03:20:47;;;;;;;0.00;0.00;;;;;;;4.02;100.00;101806.56;4945819;28;20042;-75
2023/01/29 03:23:26;;;;;;;0.00;0.00;;;;;;;4.08;100.00;101804.16;4947503;28;20031;-76
2023/01/29 03:34:34;;;;;;;;;;;;;;;4.01;100.00;101794.06;4938751;28;20098;-76
2023/01/29 03:37:28;;;;;;;0.00;0.00;;;;;;;3.96;100.00;101791.09;4942487;28;20425;-76
2023/01/29 03:39:54;;;;;;;0.00;0.00;;;;;;;3.94;100.00;101787.75;4940805;28;20043;-74
2023/01/29 03:42:30;;;;;;;0.00;0.00;;;;;;;3.96;100.00;101791.09;4933300;29;20027;-75
2023/01/29 03:45:15;;;;;;;0.00;0.00;;;;;;;3.97;100.00;101786.50;4940788;28;20377;-75
2023/01/29 03:47:47;;;;;;;0.00;0.00;;;;;;;4.00;100.00;101787.00;4946401;28;20027;-74
2023/01/29 03:50:51;;;;;;;0.10;0.10;;;;;;;4.10;100.00;101791.25;4947277;28;20189;-74
2023/01/29 03:53:37;;;;;;;0.00;0.00;;;;;;;4.16;100.00;101785.06;4933678;28;20125;-74
2023/01/29 03:56:28;;;;;;;0.00;0.00;;;;;;;4.21;100.00;101785.38;4946591;28;20046;-73
2023/01/29 03:58:59;;;;;;;0.00;0.00;;;;;;;4.24;100.00;101793.09;4917355;28;20193;-75
2023/01/29 04:01:46;;;;;;;0.03;0.03;;;;;;;4.24;100.00;101787.69;4966637;28;20027;-76
2023/01/29 04:04:21;;;;;;;0.00;0.00;;;;;;;4.27;100.00;101790.00;4943061;28;20490;-76
2023/01/29 04:06:51;;;;;;;0.00;0.00;;;;;;;4.25;100.00;101794.78;4935570;28;20385;-77
2023/01/29 04:09:33;;;;;;;0.00;0.00;;;;;;;4.26;100.00;101796.44;4942007;28;20389;-77
2023/01/29 04:12:09;;;;;;;0.00;0.00;;;;;;;4.25;100.00;101792.09;4939308;28;20054;-76
2023/01/29 04:14:35;;;;;;;0.00;0.00;;;;;;;4.28;100.00;101789.00;4944784;28;20015;-76
2023/01/29 04:17:17;;;;;;;0.00;0.00;;;;;;;4.25;100.00;101783.97;4931252;28;20041;-76
2023/01/29 04:19:43;;;;;;;0.00;0.00;;;;;;;4.27;100.00;101781.88;4948818;28;20027;-76
2023/01/29 04:22:38;;;;;;;0.00;0.00;;;;;;;4.22;100.00;101776.22;4952061;28;20034;-76
2023/01/29 04:25:14;;;;;;;0.00;0.00;;;;;;;4.19;100.00;101779.28;4938430;28;20050;-76
2023/01/29 04:28:01;;;;;;;0.00;0.00;;;;;;;4.20;100.00;101775.56;4941069;28;20035;-77
2023/01/29 04:30:45;;;;;;;0.00;0.00;;;;;;;4.18;100.00;101777.63;4954736;28;20027;-77
2023/01/29 04:33:16;;;;;;;0.00;0.00;;;;;;;4.13;100.00;101752.97;4943033;28;20393;-77
2023/01/29 04:36:13;;;;;;;0.00;0.00;;;;;;;4.18;100.00;101767.63;4953111;28;20034;-76
2023/01/29 04:38:48;;;;;;;0.00;0.00;;;;;;;4.13;100.00;101758.38;4947483;28;20035;-76
2023/01/29 04:41:19;;;;;;;0.00;0.00;;;;;;;4.15;100.00;101761.75;4934798;28;20039;-77
2023/01/29 04:43:53;;;;;;;0.00;0.00;;;;;;;4.17;100.00;101759.69;4952156;28;20671;-76
2023/01/29 04:46:56;;;;;;;0.00;0.00;;;;;;;4.17;100.00;101765.09;4931579;28;20031;-78
2023/01/29 04:49:40;;;;;;;0.00;0.00;;;;;;;4.16;100.00;101768.84;4943701;28;20090;-77
2023/01/29 04:52:14;;;;;;;0.00;0.00;;;;;;;4.16;100.00;101768.84;4950737;28;20046;-76
2023/01/29 04:54:58;;;;;;;0.00;0.00;;;;;;;4.14;100.00;101765.50;4935245;28;20024;-76
2023/01/29 04:57:33;;;;;;;0.00;0.00;;;;;;;4.13;100.00;101774.63;4954067;28;20054;-75
2023/01/29 05:00:09;;;;;;;0.00;0.00;;;;;;;4.14;100.00;101770.91;4950775;28;20496;-75
2023/01/29 05:02:38;;;;;;;0.00;0.00;;;;;;;4.09;100.00;101763.34;4952512;28;20030;-75
2023/01/29 05:05:06;;;;;;;0.10;0.10;;;;;;;4.09;100.00;101757.94;4932840;28;20081;-76
2023/01/29 05:07:37;;;;;;;0.00;0.00;;;;;;;4.09;100.00;101759.78;4949948;28;20059;-76
2023/01/29 05:10:08;;;;;;;0.00;0.00;;;;;;;4.07;100.00;101753.75;4950422;28;20416;-76
2023/01/29 05:12:35;;;;;;;0.00;0.00;;;;;;;4.07;100.00;101751.88;4935269;28;20127;-76
2023/01/29 05:15:07;;;;;;;0.00;0.00;;;;;;;4.02;100.00;101747.03;4947295;28;20054;-76
2023/01/29 05:17:32;;;;;;;0.00;0.00;;;;;;;4.11;100.00;101747.75;4946884;28;20742;-76
2023/01/29 05:19:58;;;;;;;0.00;0.00;;;;;;;4.12;100.00;101741.31;4951386;28;20043;-76
2023/01/29 05:22:25;;;;;;;0.00;0.00;;;;;;;4.17;100.00;101746.16;4940317;28;20037;-76
2023/01/29 05:24:50;;;;;;;0.00;0.00;;;;;;;4.19;100.00;101741.38;4949740;28;20066;-75
2023/01/29 05:30:04;;;;;;;0.00;0.00;;;;;;;4.15;100.00;101719.28;4941743;28;20069;-76
2023/01/29 05:32:30;;;;;;;0.00;0.00;;;;;;;4.20;100.00;101721.41;4944525;28;20035;-75
2023/01/29 05:34:55;;;;;;;0.00;0.00;;;;;;;4.13;100.00;101715.06;4948234;28;20057;-76
2023/01/29 05:37:21;;;;;;;0.00;0.00;;;;;;;4.14;100.00;101728.41;4927377;28;20386;-75
2023/01/29 05:39:46;;;;;;;0.00;0.00;;;;;;;4.12;100.00;101708.00;4925434;29;20111;-75
2023/01/29 05:42:12;;;;;;;0.00;0.00;;;;;;;4.17;100.00;101716.38;4937044;28;20032;-75
2023/01/29 05:44:44;;;;;;;0.00;0.00;;;;;;;4.23;100.00;101720.19;4941308;28;20086;-74
2023/01/29 05:47:12;;;;;;;0.00;0.00;;;;;;;4.21;100.00;101709.53;4937962;28;20038;-76
2023/01/29 05:49:38;;;;;;;0.00;0.00;;;;;;;4.22;100.00;101719.34;4942566;28;20027;-76
2023/01/29 05:52:03;;;;;;;0.00;0.00;;;;;;;4.18;100.00;101696.41;4924835;29;20537;-76
2023/01/29 05:54:29;;;;;;;0.00;0.00;;;;;;;4.18;100.00;101704.53;4945960;28;20027;-75
2023/01/29 05:56:54;;;;;;;0.00;0.00;;;;;;;4.18;100.00;101705.34;4952048;28;20039;-76
2023/01/29 05:59:20;;;;;;;0.00;0.00;;;;;;;4.21;100.00;101712.25;4910660;29;20035;-76
2023/01/29 06:01:45;;;;;;;0.00;0.00;;;;;;;4.22;100.00;101713.94;4927323;28;20039;-75
2023/01/29 06:04:10;;;;;;;0.00;0.00;;;;;;;4.14;100.00;101698.63;4923525;29;20462;-76
2023/01/29 06:06:36;;;;;;;0.00;0.00;;;;;;;4.22;100.00;101708.53;4944600;28;20058;-75
2023/01/29 06:09:01;;;;;;;0.00;0.00;;;;;;;4.18;100.00;101696.41;4931234;29;20027;-76
2023/01/29 06:11:27;;;;;;;0.00;0.00;;;;;;;4.24;100.00;101698.31;4930693;29;20066;-76
2023/01/29 06:13:53;;;;;;;0.00;0.00;;;;;;;4.25;100.00;101705.44;4931374;28;20489;-76
2023/01/29 06:16:18;;;;;;;0.00;0.00;;;;;;;4.27;100.00;101700.66;4964910;28;20138;-77
2023/01/29 06:18:43;;;;;;;0.00;0.00;;;;;;;4.26;100.00;101688.13;4925710;28;20032;-75
2023/01/29 06:21:11;;;;;;;0.00;0.00;;;;;;;4.26;100.00;101690.84;4916730;29;20023;-77
2023/01/29 06:23:37;;;;;;;0.00;0.00;;;;;;;4.22;100.00;101689.56;4936040;28;20035;-75
2023/01/29 06:26:05;;;;;;;0.00;0.00;;;;;;;4.23;100.00;101693.94;4925902;29;20705;-77
2023/01/29 06:28:31;;;;;;;0.00;0.00;;;;;;;4.17;100.00;101673.88;4947637;28;20030;-76
2023/01/29 06:30:58;;;;;;;0.00;0.00;;;;;;;4.21;100.00;101679.75;4918216;29;20118;-75
2023/01/29 06:33:24;;;;;;;0.00;0.00;;;;;;;4.22;100.00;101681.44;4946000;28;20083;-74
2023/01/29 06:35:57;;;;;;;0.00;0.00;;;;;;;4.19;100.00;101679.09;4927533;28;20047;-74
2023/01/29 06:38:23;;;;;;;0.10;0.10;;;;;;;4.18;100.00;101674.72;4949087;28;20102;-75
2023/01/29 06:40:49;;;;;;;0.00;0.00;;;;;;;4.20;100.00;101678.06;4940843;28;20027;-77
2023/01/29 06:43:14;;;;;;;0.00;0.00;;;;;;;4.24;100.00;101678.53;4946132;28;20652;-77
2023/01/29 06:45:47;;;;;;;0.00;0.00;;;;;;;4.20;100.00;101678.06;4916564;29;20043;-78
2023/01/29 06:48:12;;;;;;;0.00;0.00;;;;;;;4.21;100.00;101674.34;4944656;28;20019;-78
2023/01/29 06:50:38;;;;;;;0.00;0.00;;;;;;;4.23;100.00;101685.81;4936306;29;20081;-77
2023/01/29 06:53:06;;;;;;;0.00;0.00;;;;;;;4.19;100.00;101676.38;4943077;28;20046;-75
2023/01/29 06:55:42;;;;;;;0.00;0.00;;;;;;;4.24;100.00;101679.38;4923756;28;20112;-77
2023/01/29 06:58:21;;;;;;;;;;;;;;;;;;;;;
2023/01/29 07:01:42;;;;;;;;;;;;;;;;;;;;;
2023/01/29 07:07:12;;;;;;;;;;;;;;;;;;;;;
2023/01/29 07:10:11;;;;;;;0.00;0.00;;;;;;;3.89;100.00;101626.97;4943214;28;20027;-78
2023/01/29 07:16:39;;;;;;;;;;;;;;;;;;;;;
2023/01/29 07:19:55;;;;;;;;;;;;;;;;;;;;;
2023/01/29 07:23:18;;;;;;;;;;;;;;;;;;;;;
2023/01/29 07:25:54;;;;;;;;;;;;;;;;;;;;;
2023/01/29 07:28:30;;;;;;;0.00;0.00;;;;;;;4.20;100.00;101656.41;4948605;28;19916;-78
2023/01/29 07:30:59;;;;;;;0.00;0.00;;;;;;;4.22;100.00;101662.50;4928562;28;20069;-77
2023/01/29 07:33:27;;;;;;;0.00;0.00;;;;;;;4.23;100.00;101660.63;4945100;28;20051;-77
2023/01/29 07:36:15;;;;;;;0.00;0.00;;;;;;;4.14;100.00;101646.38;4914767;28;20067;-76
2023/01/29 07:39:04;;;;;;;0.00;0.00;;;;;;;4.06;100.00;101638.34;4935225;28;20061;-77
2023/01/29 07:42:02;;;;;;;0.00;0.00;;;;;;;4.01;100.00;101631.66;4951369;28;20037;-76
2023/01/29 07:44:27;;;;;;;0.00;0.00;;;;;;;4.11;100.00;101650.28;4936101;28;20031;-77
2023/01/29 07:46:52;;;;;;;0.00;0.00;;;;;;;4.16;100.00;101660.53;4912256;28;20033;-77
2023/01/29 07:49:34;;;;;;;0.10;0.10;;;;;;;4.15;100.00;101664.28;4935850;28;20055;-76
2023/01/29 07:52:12;;;;;;;0.00;0.00;;;;;;;4.16;100.00;101655.13;4940595;28;20082;-77
2023/01/29 07:57:49;;;;;;;;;;;;;;;;;;;;;
2023/01/29 08:00:25;;;;;;;;;;;;;;;;;;;;;
2023/01/29 08:03:27;;;;;;;0.00;0.00;;;;;;;4.18;100.00;101647.66;4939027;28;20027;-76
2023/01/29 08:06:21;;;;;;;;;;;;;;;;;;;;;
2023/01/29 08:09:01;;;;;;;;;;;;;;;;;;;;;
2023/01/29 08:11:26;;;;;;;0.00;0.00;;;;;;;4.20;100.00;101645.59;4937786;28;20031;-77
2023/01/29 08:14:14;;;;;;;;;;;;;;;;;;;;;
2023/01/29 08:17:20;;;;;;;0.08;0.08;;;;;;;4.31;100.00;101641.53;4942496;28;20038;-76
2023/01/29 08:20:26;;;;;;;0.00;0.00;;;;;;;4.27;100.00;101635.66;4940396;28;20046;-77
2023/01/29 08:23:24;;;;;;;0.00;0.00;;;;;;;4.41;100.00;101660.13;4945641;28;20042;-77
2023/01/29 08:25:49;;;;;;;0.00;0.00;;;;;;;4.53;100.00;101666.72;4910757;29;20031;-76
2023/01/29 08:28:58;;;;;;;0.10;0.10;;;;;;;4.46;100.00;101660.41;4939091;28;20032;-76
2023/01/29 08:31:37;;;;;;;;;;;;;;;;;;;;;
2023/01/29 08:34:16;;;;;;;0.00;0.00;;;;;;;4.52;100.00;101667.75;4936750;28;20034;-75
2023/01/29 08:36:51;;;;;;;0.00;0.00;;;;;;;4.39;100.00;101637.84;4943079;28;20035;-75
2023/01/29 08:40:11;;;;;;;;;;;;;;;;;;;;;
2023/01/29 08:43:26;;;;;;;0.00;0.00;;;;;;;4.51;100.00;101620.00;4883546;29;20499;-78
2023/01/29 08:46:43;;;;;;;;;;;;;;;;;;;;;
2023/01/29 08:50:18;;;;;;;;;;;;;;;;;;;;;
2023/01/29 08:52:51;;;;;;;0.00;0.00;;;;;;;5.03;100.00;101629.53;4899277;29;20066;-77
2023/01/29 08:55:41;;;;;;;0.00;0.00;;;;;;;5.03;100.00;101617.88;4892066;29;20119;-78
2023/01/29 08:58:20;;;;;;;0.00;0.00;;;;;;;5.23;100.00;101637.78;4884043;29;20039;-79
2023/01/29 09:04:45;;;;;;;;;;;;;;;;;;;;;
2023/01/29 09:07:25;;;;;;;0.00;0.00;;;;;;;5.46;100.00;101658.38;4841086;29;20014;-84
2023/01/29 09:10:14;;;;;;;0.00;0.00;;;;;;;5.53;100.00;101644.81;4841178;29;20225;-78
2023/01/29 09:12:38;;;;;;;0.00;0.00;;;;;;;5.74;100.00;101658.25;4844438;29;20053;-77
2023/01/29 09:15:04;;;;;;;0.00;0.00;;;;;;;5.81;100.00;101665.59;4841333;29;20046;-76
2023/01/29 09:17:34;;;;;;;0.00;0.00;;;;;;;5.73;100.00;101656.56;4852790;29;20099;-79
2023/01/29 09:19:59;;;;;;;0.00;0.00;;;;;;;5.68;100.00;101653.66;4841204;29;20060;-80
2023/01/29 09:22:25;;;;;;;0.00;0.00;;;;;;;5.76;100.00;101656.16;4915783;28;20556;-80
2023/01/29 09:24:50;;;;;;;0.00;0.00;;;;;;;5.88;100.00;101669.16;4940360;28;20386;-81
2023/01/29 09:27:18;;;;;;;0.00;0.00;;;;;;;5.90;100.00;101653.50;4946794;28;20023;-82
2023/01/29 09:29:44;;;;;;;0.00;0.00;;;;;;;5.99;100.00;101659.63;4941008;28;20024;-79
2023/01/29 09:32:11;;;;;;;0.00;0.00;;;;;;;6.11;100.00;101663.41;4916825;28;20043;-79
2023/01/29 09:34:37;;;;;;;0.20;0.20;;;;;;;6.15;100.00;101664.66;4927380;29;20469;-79
2023/01/29 09:37:02;;;;;;;0.10;0.10;;;;;;;6.29;100.00;101665.50;4926522;28;20035;-80
2023/01/29 09:39:35;;;;;;;0.00;0.00;;;;;;;6.40;100.00;101662.19;4928541;28;20472;-80
2023/01/29 09:42:07;;;;;;;0.00;0.00;;;;;;;6.60;100.00;101678.50;4948961;28;20410;-80
2023/01/29 09:45:00;;;;;;;0.00;0.00;;;;;;;6.59;100.00;101667.84;4949324;28;20070;-81
2023/01/29 09:47:27;;;;;;;0.00;0.00;;;;;;;6.72;100.00;101676.00;4938354;28;20024;-80
2023/01/29 09:50:04;;;;;;;0.00;0.00;;;;;;;6.64;100.00;101651.72;4946386;28;20031;-81
2023/01/29 09:52:56;;;;;;;0.00;0.00;;;;;;;6.73;100.00;101655.94;4947766;28;20024;-79
2023/01/29 09:55:40;;;;;;;;;;;;;;;;;;;;;
2023/01/29 09:58:19;;;;;;;0.00;0.00;;;;;;;6.85;100.00;101647.09;4951110;28;20025;-81
2023/01/29 10:01:14;;;;;;;0.00;0.00;;;;;;;6.90;100.00;101650.03;4948865;28;20039;-79
2023/01/29 10:03:51;;;;;;;0.00;0.00;;;;;;;6.89;100.00;101629.31;4929109;28;20090;-80
2023/01/29 10:06:42;;;;;;;0.00;0.00;;;;;;;6.96;100.00;101646.47;4945308;28;20038;-80
2023/01/29 10:09:35;;;;;;;0.00;0.00;;;;;;;7.06;100.00;101641.41;4946242;28;20031;-79
2023/01/29 10:12:13;;;;;;;0.00;0.00;;;;;;;7.24;100.00;101639.91;4940703;28;20023;-79
2023/01/29 10:14:47;;;;;;;0.00;0.00;;;;;;;7.46;100.00;101630.44;4944730;28;20031;-78
2023/01/29 10:17:32;;;;;;;0.00;0.00;;;;;;;7.63;100.00;101621.75;4945918;28;20019;-79
2023/01/29 10:20:10;;;;;;;0.00;0.00;;;;;;;7.93;100.00;101642.94;4947938;28;20031;-80
2023/01/29 10:23:07;;;;;;;0.00;0.00;;;;;;;8.24;100.00;101644.88;4947423;28;20030;-81
2023/01/29 10:25:38;;;;;;;0.00;0.00;;;;;;;8.31;100.00;101642.06;4933494;28;20034;-81
2023/01/29 10:28:18;;;;;;;0.00;0.00;;;;;;;8.60;100.00;101615.25;4946353;28;20089;-82
2023/01/29 10:30:48;;;;;;;0.00;0.00;;;;;;;9.15;100.00;101612.56;4942997;28;20065;-80
2023/01/29 10:33:32;;;;;;;0.00;0.00;;;;;;;9.33;100.00;101619.94;4944852;28;20051;-80
2023/01/29 10:36:05;;;;;;;0.00;0.00;;;;;;;9.34;100.00;101631.69;4945907;28;20036;-81
2023/01/29 10:38:46;;;;;;;0.00;0.00;;;;;;;9.08;100.00;101620.00;4944172;28;20474;-80
2023/01/29 10:41:42;;;;;;;0.00;0.00;;;;;;;9.15;100.00;101639.88;4949311;28;20032;-81
2023/01/29 10:44:24;;;;;;;0.00;0.00;;;;;;;8.98;100.00;101616.97;4940744;28;20118;-81
2023/01/29 10:46:57;;;;;;;0.00;0.00;;;;;;;8.85;100.00;101607.88;4941629;28;20450;-82
2023/01/29 10:50:03;;;;;;;0.00;0.00;;;;;;;8.85;100.00;101626.16;4944129;28;20110;-80
2023/01/29 10:52:34;;;;;;;;;;;;;;;8.98;100.00;101628.75;4936040;29;20043;-81
2023/01/29 10:55:12;;;;;;;0.00;0.00;;;;;;;9.02;100.00;101615.47;4965008;28;19965;-81
2023/01/29 10:57:59;;;;;;;0.00;0.00;;;;;;;8.86;100.00;101608.69;4949639;28;20031;-81
2023/01/29 11:00:30;;;;;;;0.00;0.00;;;;;;;8.99;100.00;101613.19;4934955;28;20102;-81
2023/01/29 11:03:06;;;;;;;;;;;;;;;;;;;;;
2023/01/29 11:05:54;;;;;;;;;;;;;;;;;;;;;
2023/01/29 11:08:52;;;;;;;0.00;0.00;;;;;;;10.39;100.00;101597.63;4947816;28;20015;-81
2023/01/29 11:11:35;;;;;;;0.00;0.00;;;;;;;10.38;100.00;101600.59;4944956;28;20035;-80
2023/01/29 11:14:06;;;;;;;0.00;0.00;;;;;;;10.21;100.00;101584.88;4946625;28;20027;-80
2023/01/29 11:16:45;;;;;;;0.00;0.00;;;;;;;9.99;100.00;101584.59;4950662;28;20038;-80
2023/01/29 11:19:11;;;;;;;0.00;0.00;;;;;;;9.78;100.00;101603.19;4935071;28;20026;-79
2023/01/29 11:21:51;;;;;;;0.00;0.00;;;;;;;9.37;100.00;101579.38;4949647;28;20031;-80
2023/01/29 11:24:17;;;;;;;0.00;0.00;;;;;;;9.24;100.00;101572.16;4945466;28;20019;-82
2023/01/29 11:26:45;;;;;;;0.00;0.00;;;;;;;9.07;100.00;101563.78;4952612;28;20421;-80
2023/01/29 11:29:26;;;;;;;0.00;0.00;;;;;;;8.91;100.00;101568.78;4945151;28;20031;-81
2023/01/29 11:31:52;;;;;;;0.00;0.00;;;;;;;8.89;100.00;101554.53;4940572;28;20044;-81
2023/01/29 11:34:21;;;;;;;0.00;0.00;;;;;;;8.96;100.00;101562.63;4945632;28;20084;-80
2023/01/29 11:36:58;;;;;;;0.00;0.00;;;;;;;8.71;100.00;101540.88;4944314;28;20051;-80
2023/01/29 11:39:26;;;;;;;0.00;0.00;;;;;;;8.72;100.00;101550.75;4943137;28;20426;-81
2023/01/29 11:42:04;;;;;;;0.00;0.00;;;;;;;8.58;100.00;101535.56;4951834;28;20476;-80
2023/01/29 11:44:40;;;;;;;0.00;0.00;;;;;;;8.65;100.00;101542.63;4945905;28;20042;-81
2023/01/29 11:47:27;;;;;;;0.00;0.00;;;;;;;8.59;100.00;101537.25;4944476;28;20024;-81
2023/01/29 11:49:55;;;;;;;0.00;0.00;;;;;;;8.88;100.00;101536.50;4948239;28;20023;-80
2023/01/29 11:52:37;;;;;;;0.00;0.00;;;;;;;9.16;100.00;101547.94;4948084;28;20027;-81
2023/01/29 11:55:16;;;;;;;0.00;0.00;;;;;;;9.13;100.00;101524.66;4951097;28;20347;-80
2023/01/29 11:57:45;;;;;;;0.00;0.00;;;;;;;9.52;100.00;101533.38;4953509;28;20122;-82
2023/01/29 12:00:20;;;;;;;0.03;0.03;;;;;;;10.12;100.00;101540.66;4936146;29;20027;-79
2023/01/29 12:02:52;;;;;;;0.00;0.00;;;;;;;10.33;100.00;101523.91;4942787;28;20421;-81
2023/01/29 12:05:21;;;;;;;0.00;0.00;;;;;;;10.58;100.00;101529.97;4946661;28;20164;-81
2023/01/29 12:07:59;;;;;;;0.00;0.00;;;;;;;10.51;100.00;101499.19;4942501;28;20041;-79
2023/01/29 12:10:40;;;;;;;0.00;0.00;;;;;;;11.25;100.00;101514.97;4947245;28;20027;-81
2023/01/29 12:13:11;;;;;;;0.00;0.00;;;;;;;12.62;100.00;101500.25;4954300;28;20027;-80
2023/01/29 12:15:41;;;;;;;0.00;0.00;;;;;;;12.99;100.00;101498.81;4960064;28;20028;-79
2023/01/29 12:18:46;;;;;;;0.00;0.00;;;;;;;12.83;100.00;101492.28;4957330;28;20030;-82
2023/01/29 12:21:45;;;;;;;0.00;0.00;;;;;;;13.10;100.00;101495.94;4948983;28;20035;-79
2023/01/29 12:24:39;;;;;;;0.00;0.00;;;;;;;12.89;100.00;101492.13;4948941;28;20109;-80
2023/01/29 12:27:28;;;;;;;0.00;0.00;;;;;;;12.89;100.00;101466.56;4934197;28;20430;-81
2023/01/29 12:30:11;;;;;;;0.00;0.00;;;;;;;12.56;100.00;101482.91;4938127;28;20027;-81
2023/01/29 12:33:03;;;;;;;0.00;0.00;;;;;;;12.16;100.00;101459.31;4944802;28;20035;-80
2023/01/29 12:35:34;;;;;;;0.00;0.00;;;;;;;11.60;100.00;101472.88;4948042;28;20047;-82
2023/01/29 12:38:09;;;;;;;0.00;0.00;;;;;;;11.05;100.00;101459.81;4961301;28;20256;-80
2023/01/29 12:40:43;;;;;;;0.00;0.00;;;;;;;10.83;100.00;101428.50;4949702;28;20037;-80
2023/01/29 12:43:30;;;;;;;0.00;0.00;;;;;;;11.25;100.00;101460.19;4946644;28;20173;-81
2023/01/29 12:45:57;;;;;;;0.00;0.00;;;;;;;11.16;100.00;101439.78;4945810;28;20469;-81
2023/01/29 12:48:30;;;;;;;0.00;0.00;;;;;;;10.58;100.00;101430.69;4953363;28;20074;-80
2023/01/29 12:51:03;;;;;;;0.00;0.00;;;;;;;10.34;100.00;101432.63;4939718;28;20032;-83
2023/01/29 12:53:55;;;;;;;0.00;0.00;;;;;;;10.24;100.00;101434.03;4955272;28;20054;-81
2023/01/29 12:56:46;;;;;;;0.00;0.00;;;;;;;10.08;100.00;101419.19;4938262;28;20046;-82
2023/01/29 12:59:45;;;;;;;0.00;0.00;;;;;;;10.02;100.00;101425.63;4961625;28;20038;-80
2023/01/29 13:02:24;;;;;;;0.00;0.00;;;;;;;9.82;100.00;101420.50;4952688;28;20123;-80
2023/01/29 13:05:01;;;;;;;0.00;0.00;;;;;;;9.51;100.00;101403.38;4954484;28;20120;-82
2023/01/29 13:07:34;;;;;;;0.00;0.00;;;;;;;9.36;100.00;101384.72;4946280;28;20063;-82
2023/01/29 13:10:31;;;;;;;0.00;0.00;;;;;;;9.25;100.00;101375.41;4935779;28;20024;-81
2023/01/29 13:13:03;;;;;;;0.00;0.00;;;;;;;9.17;100.00;101375.78;4947054;28;20031;-81
2023/01/29 13:15:44;;;;;;;0.00;0.00;;;;;;;9.25;100.00;101375.41;4945719;28;20023;-81
2023/01/29 13:18:34;;;;;;;0.00;0.00;;;;;;;9.50;100.00;101389.97;4944392;28;20015;-80
2023/01/29 13:21:00;;;;;;;0.00;0.00;;;;;;;9.55;100.00;101374.53;4971627;28;20023;-80
2023/01/29 13:23:32;;;;;;;0.00;0.00;;;;;;;9.65;100.00;101375.84;4954059;28;20027;-80
2023/01/29 13:25:57;;;;;;;0.00;0.00;;;;;;;9.76;100.00;101380.47;4953820;28;20034;-80
2023/01/29 13:28:25;;;;;;;0.00;0.00;;;;;;;9.81;100.00;101374.31;4951356;28;20074;-80